sensor_id;sensor_type;location;lat;lon;timestamp;temperature;humidity
45044;DHT22;30784;48.490;9.688;2024-03-07T00:01:35;8.40;64.10
45044;DHT22;30784;48.490;9.688;2024-03-07T00:04:01;8.40;64.10
45044;DHT22;30784;48.490;9.688;2024-03-07T00:06:26;8.40;64.10
45044;DHT22;30784;48.490;9.688;2024-03-07T00:08:53;8.40;63.90
45044;DHT22;30784;48.490;9.688;2024-03-07T00:11:20;8.40;63.80
45044;DHT22;30784;48.490;9.688;2024-03-07T00:13:45;8.40;63.80
45044;DHT22;30784;48.490;9.688;2024-03-07T00:16:11;8.30;63.70
45044;DHT22;30784;48.490;9.688;2024-03-07T00:18:37;8.30;63.70
45044;DHT22;30784;48.490;9.688;2024-03-07T00:21:02;8.20;63.50
45044;DHT22;30784;48.490;9.688;2024-03-07T00:23:28;8.20;63.50
45044;DHT22;30784;48.490;9.688;2024-03-07T00:25:54;8.20;63.50
45044;DHT22;30784;48.490;9.688;2024-03-07T00:28:19;8.20;63.50
45044;DHT22;30784;48.490;9.688;2024-03-07T00:30:45;8.20;63.70
45044;DHT22;30784;48.490;9.688;2024-03-07T00:33:11;8.10;63.50
45044;DHT22;30784;48.490;9.688;2024-03-07T00:35:37;8.10;63.40
45044;DHT22;30784;48.490;9.688;2024-03-07T00:38:03;8.10;63.40
45044;DHT22;30784;48.490;9.688;2024-03-07T00:40:29;8.00;63.30
45044;DHT22;30784;48.490;9.688;2024-03-07T00:42:54;8.00;63.50
45044;DHT22;30784;48.490;9.688;2024-03-07T00:45:20;8.00;63.60
45044;DHT22;30784;48.490;9.688;2024-03-07T00:47:46;8.00;63.60
45044;DHT22;30784;48.490;9.688;2024-03-07T00:50:11;8.00;63.70
45044;DHT22;30784;48.490;9.688;2024-03-07T00:52:38;8.00;63.70
45044;DHT22;30784;48.490;9.688;2024-03-07T00:55:04;7.90;63.60
45044;DHT22;30784;48.490;9.688;2024-03-07T00:57:30;7.90;63.60
45044;DHT22;30784;48.490;9.688;2024-03-07T00:59:55;7.90;63.60
45044;DHT22;30784;48.490;9.688;2024-03-07T01:02:21;7.90;64.20
45044;DHT22;30784;48.490;9.688;2024-03-07T01:04:47;7.90;63.60
45044;DHT22;30784;48.490;9.688;2024-03-07T01:07:13;7.90;63.50
45044;DHT22;30784;48.490;9.688;2024-03-07T01:09:39;7.80;63.50
45044;DHT22;30784;48.490;9.688;2024-03-07T01:12:05;7.80;63.40
45044;DHT22;30784;48.490;9.688;2024-03-07T01:14:31;7.80;63.30
45044;DHT22;30784;48.490;9.688;2024-03-07T01:16:56;7.80;63.30
45044;DHT22;30784;48.490;9.688;2024-03-07T01:19:22;7.80;63.20
45044;DHT22;30784;48.490;9.688;2024-03-07T01:21:48;7.70;63.20
45044;DHT22;30784;48.490;9.688;2024-03-07T01:24:14;7.70;63.30
45044;DHT22;30784;48.490;9.688;2024-03-07T01:26:43;7.70;63.20
45044;DHT22;30784;48.490;9.688;2024-03-07T01:29:09;7.70;63.30
45044;DHT22;30784;48.490;9.688;2024-03-07T01:31:34;7.70;63.30
45044;DHT22;30784;48.490;9.688;2024-03-07T01:34:00;7.70;63.40
45044;DHT22;30784;48.490;9.688;2024-03-07T01:36:26;7.70;63.40
45044;DHT22;30784;48.490;9.688;2024-03-07T01:38:52;7.70;63.50
45044;DHT22;30784;48.490;9.688;2024-03-07T01:41:18;7.70;63.50
45044;DHT22;30784;48.490;9.688;2024-03-07T01:43:44;7.70;63.60
45044;DHT22;30784;48.490;9.688;2024-03-07T01:46:10;7.70;63.60
45044;DHT22;30784;48.490;9.688;2024-03-07T01:48:37;7.80;63.60
45044;DHT22;30784;48.490;9.688;2024-03-07T01:51:03;7.70;63.50
45044;DHT22;30784;48.490;9.688;2024-03-07T01:53:30;7.70;63.50
45044;DHT22;30784;48.490;9.688;2024-03-07T01:55:59;7.70;63.40
45044;DHT22;30784;48.490;9.688;2024-03-07T01:58:24;7.70;63.50
45044;DHT22;30784;48.490;9.688;2024-03-07T02:00:50;7.70;63.30
45044;DHT22;30784;48.490;9.688;2024-03-07T02:03:17;7.70;63.20
45044;DHT22;30784;48.490;9.688;2024-03-07T02:05:43;7.70;63.10
45044;DHT22;30784;48.490;9.688;2024-03-07T02:08:09;7.70;63.00
45044;DHT22;30784;48.490;9.688;2024-03-07T02:10:34;7.70;63.10
45044;DHT22;30784;48.490;9.688;2024-03-07T02:13:00;7.70;63.10
45044;DHT22;30784;48.490;9.688;2024-03-07T02:15:26;7.70;63.00
45044;DHT22;30784;48.490;9.688;2024-03-07T02:17:52;7.70;63.00
45044;DHT22;30784;48.490;9.688;2024-03-07T02:20:18;7.70;63.00
45044;DHT22;30784;48.490;9.688;2024-03-07T02:22:44;7.70;63.00
45044;DHT22;30784;48.490;9.688;2024-03-07T02:25:09;7.70;62.90
45044;DHT22;30784;48.490;9.688;2024-03-07T02:27:38;7.60;62.80
45044;DHT22;30784;48.490;9.688;2024-03-07T02:30:04;7.60;62.60
45044;DHT22;30784;48.490;9.688;2024-03-07T02:32:31;7.60;62.60
45044;DHT22;30784;48.490;9.688;2024-03-07T02:34:56;7.60;62.50
45044;DHT22;30784;48.490;9.688;2024-03-07T02:37:22;7.60;62.50
45044;DHT22;30784;48.490;9.688;2024-03-07T02:39:48;7.50;62.50
45044;DHT22;30784;48.490;9.688;2024-03-07T02:42:13;7.50;62.50
45044;DHT22;30784;48.490;9.688;2024-03-07T02:44:39;7.40;62.30
45044;DHT22;30784;48.490;9.688;2024-03-07T02:47:06;7.70;62.50
45044;DHT22;30784;48.490;9.688;2024-03-07T02:49:32;7.40;62.30
45044;DHT22;30784;48.490;9.688;2024-03-07T02:51:57;7.40;62.40
45044;DHT22;30784;48.490;9.688;2024-03-07T02:54:23;7.40;62.40
45044;DHT22;30784;48.490;9.688;2024-03-07T02:56:48;7.30;62.20
45044;DHT22;30784;48.490;9.688;2024-03-07T02:59:14;7.30;62.30
45044;DHT22;30784;48.490;9.688;2024-03-07T03:01:39;7.30;62.30
45044;DHT22;30784;48.490;9.688;2024-03-07T03:04:06;7.20;62.30
45044;DHT22;30784;48.490;9.688;2024-03-07T03:06:31;7.20;62.30
45044;DHT22;30784;48.490;9.688;2024-03-07T03:08:57;7.10;62.20
45044;DHT22;30784;48.490;9.688;2024-03-07T03:11:23;7.10;62.20
45044;DHT22;30784;48.490;9.688;2024-03-07T03:13:51;7.10;62.10
45044;DHT22;30784;48.490;9.688;2024-03-07T03:16:17;7.00;62.10
45044;DHT22;30784;48.490;9.688;2024-03-07T03:18:42;7.00;62.30
45044;DHT22;30784;48.490;9.688;2024-03-07T03:21:09;7.00;62.10
45044;DHT22;30784;48.490;9.688;2024-03-07T03:23:34;6.90;62.00
45044;DHT22;30784;48.490;9.688;2024-03-07T03:26:00;6.90;62.00
45044;DHT22;30784;48.490;9.688;2024-03-07T03:28:26;6.80;62.10
45044;DHT22;30784;48.490;9.688;2024-03-07T03:30:51;6.80;62.10
45044;DHT22;30784;48.490;9.688;2024-03-07T03:33:18;6.80;62.10
45044;DHT22;30784;48.490;9.688;2024-03-07T03:35:44;6.70;62.10
45044;DHT22;30784;48.490;9.688;2024-03-07T03:38:10;6.60;62.00
45044;DHT22;30784;48.490;9.688;2024-03-07T03:40:36;6.70;62.00
45044;DHT22;30784;48.490;9.688;2024-03-07T03:43:01;6.60;61.90
45044;DHT22;30784;48.490;9.688;2024-03-07T03:45:27;6.60;61.80
45044;DHT22;30784;48.490;9.688;2024-03-07T03:47:53;6.60;61.90
45044;DHT22;30784;48.490;9.688;2024-03-07T03:50:18;6.50;61.90
45044;DHT22;30784;48.490;9.688;2024-03-07T03:52:44;6.50;62.00
45044;DHT22;30784;48.490;9.688;2024-03-07T03:55:10;6.50;62.00
45044;DHT22;30784;48.490;9.688;2024-03-07T03:57:38;6.40;61.90
45044;DHT22;30784;48.490;9.688;2024-03-07T04:00:05;6.40;61.90
45044;DHT22;30784;48.490;9.688;2024-03-07T04:02:43;6.40;61.80
45044;DHT22;30784;48.490;9.688;2024-03-07T04:05:10;6.30;61.80
45044;DHT22;30784;48.490;9.688;2024-03-07T04:07:37;6.30;61.90
45044;DHT22;30784;48.490;9.688;2024-03-07T04:10:04;6.30;61.90
45044;DHT22;30784;48.490;9.688;2024-03-07T04:12:32;6.30;62.00
45044;DHT22;30784;48.490;9.688;2024-03-07T04:14:58;6.20;62.00
45044;DHT22;30784;48.490;9.688;2024-03-07T04:17:23;6.20;62.00
45044;DHT22;30784;48.490;9.688;2024-03-07T04:19:49;6.20;62.10
45044;DHT22;30784;48.490;9.688;2024-03-07T04:22:15;6.20;62.10
45044;DHT22;30784;48.490;9.688;2024-03-07T04:24:43;6.20;62.20
45044;DHT22;30784;48.490;9.688;2024-03-07T04:27:09;6.20;62.20
45044;DHT22;30784;48.490;9.688;2024-03-07T04:29:34;6.20;62.30
45044;DHT22;30784;48.490;9.688;2024-03-07T04:32:01;6.20;62.30
45044;DHT22;30784;48.490;9.688;2024-03-07T04:34:27;6.20;62.30
45044;DHT22;30784;48.490;9.688;2024-03-07T04:36:59;6.20;62.30
45044;DHT22;30784;48.490;9.688;2024-03-07T04:39:27;6.20;62.40
45044;DHT22;30784;48.490;9.688;2024-03-07T04:42:02;6.20;62.30
45044;DHT22;30784;48.490;9.688;2024-03-07T04:44:28;6.20;62.30
45044;DHT22;30784;48.490;9.688;2024-03-07T04:46:54;6.10;62.30
45044;DHT22;30784;48.490;9.688;2024-03-07T04:49:24;6.10;62.40
45044;DHT22;30784;48.490;9.688;2024-03-07T04:51:54;6.10;62.50
45044;DHT22;30784;48.490;9.688;2024-03-07T04:54:21;6.10;62.50
45044;DHT22;30784;48.490;9.688;2024-03-07T04:56:47;6.10;62.60
45044;DHT22;30784;48.490;9.688;2024-03-07T04:59:13;6.10;62.60
45044;DHT22;30784;48.490;9.688;2024-03-07T05:01:39;6.20;62.70
45044;DHT22;30784;48.490;9.688;2024-03-07T05:04:06;6.10;62.60
45044;DHT22;30784;48.490;9.688;2024-03-07T05:06:32;6.10;62.60
45044;DHT22;30784;48.490;9.688;2024-03-07T05:09:00;6.10;62.60
45044;DHT22;30784;48.490;9.688;2024-03-07T05:11:27;6.10;62.60
45044;DHT22;30784;48.490;9.688;2024-03-07T05:13:53;6.00;62.50
45044;DHT22;30784;48.490;9.688;2024-03-07T05:16:18;6.00;62.60
45044;DHT22;30784;48.490;9.688;2024-03-07T05:18:46;5.90;62.60
45044;DHT22;30784;48.490;9.688;2024-03-07T05:21:12;5.90;62.60
45044;DHT22;30784;48.490;9.688;2024-03-07T05:23:56;5.80;62.70
45044;DHT22;30784;48.490;9.688;2024-03-07T05:26:23;5.80;63.00
45044;DHT22;30784;48.490;9.688;2024-03-07T05:28:49;5.80;63.20
45044;DHT22;30784;48.490;9.688;2024-03-07T05:31:14;5.70;63.10
45044;DHT22;30784;48.490;9.688;2024-03-07T05:33:40;5.70;63.10
45044;DHT22;30784;48.490;9.688;2024-03-07T05:36:06;5.70;63.20
45044;DHT22;30784;48.490;9.688;2024-03-07T05:38:44;5.70;63.20
45044;DHT22;30784;48.490;9.688;2024-03-07T05:41:11;5.70;63.20
45044;DHT22;30784;48.490;9.688;2024-03-07T05:43:38;5.70;63.30
45044;DHT22;30784;48.490;9.688;2024-03-07T05:46:04;5.60;63.30
45044;DHT22;30784;48.490;9.688;2024-03-07T05:48:32;5.60;63.30
45044;DHT22;30784;48.490;9.688;2024-03-07T05:50:59;5.60;63.30
45044;DHT22;30784;48.490;9.688;2024-03-07T05:53:24;5.60;63.20
45044;DHT22;30784;48.490;9.688;2024-03-07T05:55:50;5.50;63.20
45044;DHT22;30784;48.490;9.688;2024-03-07T05:58:15;5.50;63.30
45044;DHT22;30784;48.490;9.688;2024-03-07T06:00:45;5.50;63.40
45044;DHT22;30784;48.490;9.688;2024-03-07T06:03:18;5.50;63.50
45044;DHT22;30784;48.490;9.688;2024-03-07T06:05:46;5.40;63.50
45044;DHT22;30784;48.490;9.688;2024-03-07T06:08:14;5.40;63.60
45044;DHT22;30784;48.490;9.688;2024-03-07T06:10:42;5.40;63.70
45044;DHT22;30784;48.490;9.688;2024-03-07T06:13:08;5.40;63.60
45044;DHT22;30784;48.490;9.688;2024-03-07T06:15:34;5.40;63.60
45044;DHT22;30784;48.490;9.688;2024-03-07T06:18:00;5.40;63.70
45044;DHT22;30784;48.490;9.688;2024-03-07T06:20:26;5.40;63.90
45044;DHT22;30784;48.490;9.688;2024-03-07T06:22:51;5.40;63.80
45044;DHT22;30784;48.490;9.688;2024-03-07T06:25:20;5.40;63.70
45044;DHT22;30784;48.490;9.688;2024-03-07T06:27:58;5.40;63.70
45044;DHT22;30784;48.490;9.688;2024-03-07T06:30:24;5.30;63.70
45044;DHT22;30784;48.490;9.688;2024-03-07T06:32:51;5.30;63.70
45044;DHT22;30784;48.490;9.688;2024-03-07T06:35:17;5.30;63.70
45044;DHT22;30784;48.490;9.688;2024-03-07T06:37:44;5.30;63.70
45044;DHT22;30784;48.490;9.688;2024-03-07T06:40:10;5.30;63.80
45044;DHT22;30784;48.490;9.688;2024-03-07T06:42:36;5.20;63.80
45044;DHT22;30784;48.490;9.688;2024-03-07T06:45:03;5.20;63.90
45044;DHT22;30784;48.490;9.688;2024-03-07T06:47:29;5.20;63.80
45044;DHT22;30784;48.490;9.688;2024-03-07T06:49:54;5.20;63.90
45044;DHT22;30784;48.490;9.688;2024-03-07T06:52:21;5.10;63.90
45044;DHT22;30784;48.490;9.688;2024-03-07T06:54:47;5.10;64.10
45044;DHT22;30784;48.490;9.688;2024-03-07T06:57:12;5.10;64.20
45044;DHT22;30784;48.490;9.688;2024-03-07T06:59:38;5.00;64.30
45044;DHT22;30784;48.490;9.688;2024-03-07T07:02:04;5.00;64.40
45044;DHT22;30784;48.490;9.688;2024-03-07T07:04:29;5.00;64.50
45044;DHT22;30784;48.490;9.688;2024-03-07T07:07:07;5.00;64.70
45044;DHT22;30784;48.490;9.688;2024-03-07T07:09:33;5.00;64.90
45044;DHT22;30784;48.490;9.688;2024-03-07T07:12:00;4.90;64.90
45044;DHT22;30784;48.490;9.688;2024-03-07T07:14:28;5.00;65.20
45044;DHT22;30784;48.490;9.688;2024-03-07T07:16:53;4.90;65.10
45044;DHT22;30784;48.490;9.688;2024-03-07T07:19:19;4.90;65.10
45044;DHT22;30784;48.490;9.688;2024-03-07T07:21:44;4.90;65.20
45044;DHT22;30784;48.490;9.688;2024-03-07T07:24:10;5.00;65.20
45044;DHT22;30784;48.490;9.688;2024-03-07T07:26:36;5.00;65.20
45044;DHT22;30784;48.490;9.688;2024-03-07T07:29:02;5.00;65.00
45044;DHT22;30784;48.490;9.688;2024-03-07T07:31:29;5.00;65.10
45044;DHT22;30784;48.490;9.688;2024-03-07T07:33:57;5.00;65.10
45044;DHT22;30784;48.490;9.688;2024-03-07T07:36:23;4.90;65.10
45044;DHT22;30784;48.490;9.688;2024-03-07T07:38:48;5.00;65.10
45044;DHT22;30784;48.490;9.688;2024-03-07T07:41:14;4.90;65.00
45044;DHT22;30784;48.490;9.688;2024-03-07T07:43:40;4.90;65.00
45044;DHT22;30784;48.490;9.688;2024-03-07T07:46:06;4.90;65.10
45044;DHT22;30784;48.490;9.688;2024-03-07T07:48:32;4.90;65.10
45044;DHT22;30784;48.490;9.688;2024-03-07T07:50:58;4.90;65.20
45044;DHT22;30784;48.490;9.688;2024-03-07T07:53:24;4.90;65.30
45044;DHT22;30784;48.490;9.688;2024-03-07T07:55:49;4.80;65.40
45044;DHT22;30784;48.490;9.688;2024-03-07T07:58:15;4.80;65.50
45044;DHT22;30784;48.490;9.688;2024-03-07T08:00:40;4.80;65.50
45044;DHT22;30784;48.490;9.688;2024-03-07T08:03:09;4.80;65.70
45044;DHT22;30784;48.490;9.688;2024-03-07T08:05:36;4.80;65.90
45044;DHT22;30784;48.490;9.688;2024-03-07T08:08:04;4.80;65.90
45044;DHT22;30784;48.490;9.688;2024-03-07T08:10:32;4.90;66.10
45044;DHT22;30784;48.490;9.688;2024-03-07T08:12:58;4.90;66.00
45044;DHT22;30784;48.490;9.688;2024-03-07T08:15:28;4.90;66.00
45044;DHT22;30784;48.490;9.688;2024-03-07T08:17:54;4.90;65.90
45044;DHT22;30784;48.490;9.688;2024-03-07T08:20:21;5.00;65.80
45044;DHT22;30784;48.490;9.688;2024-03-07T08:22:51;5.00;65.80
45044;DHT22;30784;48.490;9.688;2024-03-07T08:25:19;5.00;65.80
45044;DHT22;30784;48.490;9.688;2024-03-07T08:27:46;5.00;65.90
45044;DHT22;30784;48.490;9.688;2024-03-07T08:30:12;4.90;65.80
45044;DHT22;30784;48.490;9.688;2024-03-07T08:32:59;4.90;65.90
45044;DHT22;30784;48.490;9.688;2024-03-07T08:35:27;4.90;65.90
45044;DHT22;30784;48.490;9.688;2024-03-07T08:37:54;4.90;65.90
45044;DHT22;30784;48.490;9.688;2024-03-07T08:40:28;4.90;66.40
45044;DHT22;30784;48.490;9.688;2024-03-07T08:42:57;4.90;66.00
45044;DHT22;30784;48.490;9.688;2024-03-07T08:45:24;4.90;66.20
45044;DHT22;30784;48.490;9.688;2024-03-07T08:47:52;4.90;66.30
45044;DHT22;30784;48.490;9.688;2024-03-07T08:50:19;4.90;66.40
45044;DHT22;30784;48.490;9.688;2024-03-07T08:52:46;4.90;66.50
45044;DHT22;30784;48.490;9.688;2024-03-07T08:55:29;5.00;66.50
45044;DHT22;30784;48.490;9.688;2024-03-07T08:57:56;4.90;66.30
45044;DHT22;30784;48.490;9.688;2024-03-07T09:00:22;5.00;66.50
45044;DHT22;30784;48.490;9.688;2024-03-07T09:05:21;5.00;66.40
45044;DHT22;30784;48.490;9.688;2024-03-07T09:07:48;5.10;66.50
45044;DHT22;30784;48.490;9.688;2024-03-07T09:10:13;5.00;66.50
45044;DHT22;30784;48.490;9.688;2024-03-07T09:12:46;5.10;66.60
45044;DHT22;30784;48.490;9.688;2024-03-07T09:15:15;5.10;66.50
45044;DHT22;30784;48.490;9.688;2024-03-07T09:17:43;5.10;66.40
45044;DHT22;30784;48.490;9.688;2024-03-07T09:20:10;5.20;66.50
45044;DHT22;30784;48.490;9.688;2024-03-07T09:22:40;5.20;66.40
45044;DHT22;30784;48.490;9.688;2024-03-07T09:25:07;5.20;66.40
45044;DHT22;30784;48.490;9.688;2024-03-07T09:27:33;5.20;66.50
45044;DHT22;30784;48.490;9.688;2024-03-07T09:29:59;5.30;66.70
45044;DHT22;30784;48.490;9.688;2024-03-07T09:32:24;5.30;66.50
45044;DHT22;30784;48.490;9.688;2024-03-07T09:34:50;5.30;66.60
45044;DHT22;30784;48.490;9.688;2024-03-07T09:37:15;5.40;66.50
45044;DHT22;30784;48.490;9.688;2024-03-07T09:39:41;5.40;66.50
45044;DHT22;30784;48.490;9.688;2024-03-07T09:42:12;5.40;66.50
45044;DHT22;30784;48.490;9.688;2024-03-07T09:44:38;5.40;66.60
45044;DHT22;30784;48.490;9.688;2024-03-07T09:47:05;5.50;66.70
45044;DHT22;30784;48.490;9.688;2024-03-07T09:49:33;5.60;66.80
45044;DHT22;30784;48.490;9.688;2024-03-07T09:52:07;5.70;67.00
45044;DHT22;30784;48.490;9.688;2024-03-07T09:54:37;5.70;66.80
45044;DHT22;30784;48.490;9.688;2024-03-07T09:57:06;5.80;66.80
45044;DHT22;30784;48.490;9.688;2024-03-07T09:59:34;5.90;66.80
45044;DHT22;30784;48.490;9.688;2024-03-07T10:02:06;6.00;66.50
45044;DHT22;30784;48.490;9.688;2024-03-07T10:04:43;6.00;66.20
45044;DHT22;30784;48.490;9.688;2024-03-07T10:07:11;6.00;66.10
45044;DHT22;30784;48.490;9.688;2024-03-07T10:09:39;6.10;65.80
45044;DHT22;30784;48.490;9.688;2024-03-07T10:12:06;6.10;65.60
45044;DHT22;30784;48.490;9.688;2024-03-07T10:14:35;6.10;65.30
45044;DHT22;30784;48.490;9.688;2024-03-07T10:17:02;6.10;65.50
45044;DHT22;30784;48.490;9.688;2024-03-07T10:19:29;6.10;65.50
45044;DHT22;30784;48.490;9.688;2024-03-07T10:21:54;6.00;65.40
45044;DHT22;30784;48.490;9.688;2024-03-07T10:24:24;6.00;65.50
45044;DHT22;30784;48.490;9.688;2024-03-07T10:26:53;6.10;65.80
45044;DHT22;30784;48.490;9.688;2024-03-07T10:29:22;6.00;65.60
45044;DHT22;30784;48.490;9.688;2024-03-07T10:31:48;6.00;65.90
45044;DHT22;30784;48.490;9.688;2024-03-07T10:34:14;6.00;66.00
45044;DHT22;30784;48.490;9.688;2024-03-07T10:36:43;6.00;66.00
45044;DHT22;30784;48.490;9.688;2024-03-07T10:39:08;6.10;65.90
45044;DHT22;30784;48.490;9.688;2024-03-07T10:41:47;6.10;66.10
45044;DHT22;30784;48.490;9.688;2024-03-07T10:44:20;6.10;66.00
45044;DHT22;30784;48.490;9.688;2024-03-07T10:46:52;6.20;65.70
45044;DHT22;30784;48.490;9.688;2024-03-07T10:49:19;6.20;65.60
45044;DHT22;30784;48.490;9.688;2024-03-07T10:52:02;6.30;65.70
45044;DHT22;30784;48.490;9.688;2024-03-07T10:54:54;6.30;65.20
45044;DHT22;30784;48.490;9.688;2024-03-07T10:57:50;6.30;65.20
45044;DHT22;30784;48.490;9.688;2024-03-07T11:00:19;6.30;65.30
45044;DHT22;30784;48.490;9.688;2024-03-07T11:02:55;6.30;65.60
45044;DHT22;30784;48.490;9.688;2024-03-07T11:05:28;6.30;65.10
45044;DHT22;30784;48.490;9.688;2024-03-07T11:07:58;6.30;65.20
45044;DHT22;30784;48.490;9.688;2024-03-07T11:10:28;6.30;65.00
45044;DHT22;30784;48.490;9.688;2024-03-07T11:12:57;6.30;64.70
45044;DHT22;30784;48.490;9.688;2024-03-07T11:15:23;6.30;65.00
45044;DHT22;30784;48.490;9.688;2024-03-07T11:17:51;6.30;65.00
45044;DHT22;30784;48.490;9.688;2024-03-07T11:20:22;6.40;65.00
45044;DHT22;30784;48.490;9.688;2024-03-07T11:22:52;6.30;64.90
45044;DHT22;30784;48.490;9.688;2024-03-07T11:25:24;6.30;65.10
45044;DHT22;30784;48.490;9.688;2024-03-07T11:27:57;6.30;65.30
45044;DHT22;30784;48.490;9.688;2024-03-07T11:30:24;6.30;65.30
45044;DHT22;30784;48.490;9.688;2024-03-07T11:32:50;6.30;65.50
45044;DHT22;30784;48.490;9.688;2024-03-07T11:35:19;6.40;65.70
45044;DHT22;30784;48.490;9.688;2024-03-07T11:37:56;6.40;65.50
45044;DHT22;30784;48.490;9.688;2024-03-07T11:42:51;6.40;65.20
45044;DHT22;30784;48.490;9.688;2024-03-07T11:45:18;6.50;65.10
45044;DHT22;30784;48.490;9.688;2024-03-07T11:47:54;6.50;65.00
45044;DHT22;30784;48.490;9.688;2024-03-07T11:50:25;6.50;65.00
45044;DHT22;30784;48.490;9.688;2024-03-07T11:52:55;6.50;64.90
45044;DHT22;30784;48.490;9.688;2024-03-07T11:55:22;6.60;65.00
45044;DHT22;30784;48.490;9.688;2024-03-07T11:57:49;6.60;65.20
45044;DHT22;30784;48.490;9.688;2024-03-07T12:00:19;6.70;64.70
45044;DHT22;30784;48.490;9.688;2024-03-07T12:02:46;6.70;64.70
45044;DHT22;30784;48.490;9.688;2024-03-07T12:05:14;6.70;64.50
45044;DHT22;30784;48.490;9.688;2024-03-07T12:07:43;6.70;64.10
45044;DHT22;30784;48.490;9.688;2024-03-07T12:10:09;6.70;64.10
45044;DHT22;30784;48.490;9.688;2024-03-07T12:12:36;6.80;64.10
45044;DHT22;30784;48.490;9.688;2024-03-07T12:15:06;6.80;64.40
45044;DHT22;30784;48.490;9.688;2024-03-07T12:17:41;6.80;64.30
45044;DHT22;30784;48.490;9.688;2024-03-07T12:20:07;6.90;64.80
45044;DHT22;30784;48.490;9.688;2024-03-07T12:22:56;6.90;64.40
45044;DHT22;30784;48.490;9.688;2024-03-07T12:25:22;7.00;64.20
45044;DHT22;30784;48.490;9.688;2024-03-07T12:28:06;7.00;64.00
45044;DHT22;30784;48.490;9.688;2024-03-07T12:30:35;7.00;63.90
45044;DHT22;30784;48.490;9.688;2024-03-07T12:33:02;7.10;63.90
45044;DHT22;30784;48.490;9.688;2024-03-07T12:35:32;7.10;64.00
45044;DHT22;30784;48.490;9.688;2024-03-07T12:37:58;7.10;63.70
45044;DHT22;30784;48.490;9.688;2024-03-07T12:40:26;7.10;63.70
45044;DHT22;30784;48.490;9.688;2024-03-07T12:42:54;7.20;63.50
45044;DHT22;30784;48.490;9.688;2024-03-07T12:45:20;7.20;63.30
45044;DHT22;30784;48.490;9.688;2024-03-07T12:47:52;7.10;63.20
45044;DHT22;30784;48.490;9.688;2024-03-07T12:50:20;7.20;63.40
45044;DHT22;30784;48.490;9.688;2024-03-07T12:52:46;7.20;63.40
45044;DHT22;30784;48.490;9.688;2024-03-07T12:55:15;7.20;63.50
45044;DHT22;30784;48.490;9.688;2024-03-07T12:57:47;7.20;63.70
45044;DHT22;30784;48.490;9.688;2024-03-07T13:00:13;7.20;63.70
45044;DHT22;30784;48.490;9.688;2024-03-07T13:02:49;7.20;63.90
45044;DHT22;30784;48.490;9.688;2024-03-07T13:05:15;7.20;64.00
45044;DHT22;30784;48.490;9.688;2024-03-07T13:07:47;7.20;64.00
45044;DHT22;30784;48.490;9.688;2024-03-07T13:10:13;7.30;63.80
45044;DHT22;30784;48.490;9.688;2024-03-07T13:12:43;7.30;63.80
45044;DHT22;30784;48.490;9.688;2024-03-07T13:15:11;7.30;63.80
45044;DHT22;30784;48.490;9.688;2024-03-07T13:17:37;7.30;63.90
45044;DHT22;30784;48.490;9.688;2024-03-07T13:20:03;7.30;64.00
45044;DHT22;30784;48.490;9.688;2024-03-07T13:22:37;7.30;64.00
45044;DHT22;30784;48.490;9.688;2024-03-07T13:25:03;7.40;63.90
45044;DHT22;30784;48.490;9.688;2024-03-07T13:30:23;7.40;64.00
45044;DHT22;30784;48.490;9.688;2024-03-07T13:32:53;7.40;63.20
45044;DHT22;30784;48.490;9.688;2024-03-07T13:35:19;7.40;62.90
45044;DHT22;30784;48.490;9.688;2024-03-07T13:37:49;7.40;62.90
45044;DHT22;30784;48.490;9.688;2024-03-07T13:40:15;7.40;62.70
45044;DHT22;30784;48.490;9.688;2024-03-07T13:42:55;7.40;62.50
45044;DHT22;30784;48.490;9.688;2024-03-07T13:45:31;7.40;62.40
45044;DHT22;30784;48.490;9.688;2024-03-07T13:47:58;7.40;62.40
45044;DHT22;30784;48.490;9.688;2024-03-07T13:50:28;7.40;62.20
45044;DHT22;30784;48.490;9.688;2024-03-07T13:52:55;7.40;61.90
45044;DHT22;30784;48.490;9.688;2024-03-07T14:01:25;7.30;61.90
45044;DHT22;30784;48.490;9.688;2024-03-07T14:16:05;7.30;62.00
45044;DHT22;30784;48.490;9.688;2024-03-07T14:21:58;7.30;61.60
45044;DHT22;30784;48.490;9.688;2024-03-07T14:27:35;7.30;61.90
45044;DHT22;30784;48.490;9.688;2024-03-07T14:32:59;7.30;61.80
45044;DHT22;30784;48.490;9.688;2024-03-07T14:35:35;7.30;61.90
45044;DHT22;30784;48.490;9.688;2024-03-07T14:38:28;7.30;61.90
45044;DHT22;30784;48.490;9.688;2024-03-07T14:40:55;7.30;62.10
45044;DHT22;30784;48.490;9.688;2024-03-07T14:43:21;7.30;61.90
45044;DHT22;30784;48.490;9.688;2024-03-07T14:45:47;7.30;62.10
45044;DHT22;30784;48.490;9.688;2024-03-07T14:48:17;7.40;62.20
45044;DHT22;30784;48.490;9.688;2024-03-07T14:50:45;7.40;62.10
45044;DHT22;30784;48.490;9.688;2024-03-07T14:53:12;7.40;61.80
45044;DHT22;30784;48.490;9.688;2024-03-07T14:55:39;7.50;61.90
45044;DHT22;30784;48.490;9.688;2024-03-07T14:58:06;7.50;62.10
45044;DHT22;30784;48.490;9.688;2024-03-07T15:00:38;7.50;62.00
45044;DHT22;30784;48.490;9.688;2024-03-07T15:03:08;7.50;61.30
45044;DHT22;30784;48.490;9.688;2024-03-07T15:05:34;7.60;61.30
45044;DHT22;30784;48.490;9.688;2024-03-07T15:08:00;7.60;60.80
45044;DHT22;30784;48.490;9.688;2024-03-07T15:10:30;7.60;60.80
45044;DHT22;30784;48.490;9.688;2024-03-07T15:12:56;7.60;60.20
45044;DHT22;30784;48.490;9.688;2024-03-07T15:15:22;7.60;60.10
45044;DHT22;30784;48.490;9.688;2024-03-07T15:17:50;7.60;60.10
45044;DHT22;30784;48.490;9.688;2024-03-07T15:20:16;7.60;60.10
45044;DHT22;30784;48.490;9.688;2024-03-07T15:22:58;7.60;60.00
45044;DHT22;30784;48.490;9.688;2024-03-07T15:25:25;7.60;60.00
45044;DHT22;30784;48.490;9.688;2024-03-07T15:27:51;7.60;60.00
45044;DHT22;30784;48.490;9.688;2024-03-07T15:30:18;7.60;60.00
45044;DHT22;30784;48.490;9.688;2024-03-07T15:32:45;7.60;59.90
45044;DHT22;30784;48.490;9.688;2024-03-07T15:35:12;7.60;59.70
45044;DHT22;30784;48.490;9.688;2024-03-07T15:37:44;7.60;59.80
45044;DHT22;30784;48.490;9.688;2024-03-07T15:40:10;7.50;59.60
45044;DHT22;30784;48.490;9.688;2024-03-07T15:42:41;7.60;59.50
45044;DHT22;30784;48.490;9.688;2024-03-07T15:45:07;7.60;59.50
45044;DHT22;30784;48.490;9.688;2024-03-07T15:47:37;7.50;59.60
45044;DHT22;30784;48.490;9.688;2024-03-07T15:50:05;7.50;59.70
45044;DHT22;30784;48.490;9.688;2024-03-07T15:52:31;7.50;59.40
45044;DHT22;30784;48.490;9.688;2024-03-07T15:55:00;7.50;59.40
45044;DHT22;30784;48.490;9.688;2024-03-07T15:57:25;7.60;59.40
45044;DHT22;30784;48.490;9.688;2024-03-07T15:59:53;7.50;58.90
45044;DHT22;30784;48.490;9.688;2024-03-07T16:02:19;7.60;58.90
45044;DHT22;30784;48.490;9.688;2024-03-07T16:04:47;7.60;58.70
45044;DHT22;30784;48.490;9.688;2024-03-07T16:07:13;7.60;58.60
45044;DHT22;30784;48.490;9.688;2024-03-07T16:09:38;7.50;58.50
45044;DHT22;30784;48.490;9.688;2024-03-07T16:12:04;7.60;58.70
45044;DHT22;30784;48.490;9.688;2024-03-07T16:14:30;7.60;58.50
45044;DHT22;30784;48.490;9.688;2024-03-07T16:16:56;7.60;58.40
45044;DHT22;30784;48.490;9.688;2024-03-07T16:19:21;7.60;58.20
45044;DHT22;30784;48.490;9.688;2024-03-07T16:21:47;7.60;58.00
45044;DHT22;30784;48.490;9.688;2024-03-07T16:24:14;7.60;57.90